Thunder radar more information blitzortung!


avis per Pluja more information rain snow radar


Visita la nostra xarxa de llocs de meteo:

Template documentation
and downloads

And another site



Rain From: 16-11-2018 00:00 Until: 09:59 warning for: Rain Level: Yellow info button

Pagina Historial Weather Underground text

Diari Resum January 17, 2018 Unitats:  Imperial    Mètric   Tant
« Previous Dia
SegĂźent Dia »
Diari Setmana Mensual Anual Personalitzada
  Maxima: Minima: Media:
Temperatura: TemperatureC °F 5.2 °F 11.5 °F
Punt de rosada: DewpointC °F -1.8 °F 1.6 °F
Humitat: Humidity % 39 % 50 %
Wind Speed: WindSpeedKMH mph 0.0 mph 7.6 mph
RĂ fegues de vent: WindSpeedGustKMH mph - -
Vent:- - WSW
Pression baro: PressurehPa in 1015.8 in -
Precipitacions: 0.0 in    
Historical Graphs
 
 
Dades de taula per January 17, 2018
Temps Temperatura Punt de rosada Pression baro Vent Wind Speed RĂ fegues de vent Humitat Rainfall Rate (Hourly)
TemperatureC °F DewpointC °F PressurehPa in Calm     Humidity % HourlyPrecipMM in
00:00 12.1 °F 5.3 °F 1015.8 in WSW 8.0 mph 11.3 mph 63 % 0.0 in
00:10 12.0 °F 5.2 °F 1015.8 in West 4.8 mph 12.9 mph 63 % 0.0 in
00:16 12.4 °F 5.3 °F 1016.8 in West 27.8 mph 27.8 mph 62 % 0.0 in
00:20 11.9 °F 5.1 °F 1015.8 in WNW 4.8 mph 9.7 mph 63 % 0.0 in
00:30 11.8 °F 5.0 °F 1015.8 in West 9.7 mph 14.5 mph 63 % 0.0 in
00:36 12.4 °F 5.3 °F 1015.8 in WSW 18.5 mph 18.5 mph 62 % 0.0 in
00:40 11.8 °F 5.0 °F 1016.8 in WNW 9.7 mph 16.1 mph 63 % 0.0 in
00:45 12.3 °F 5.2 °F 1015.8 in WSW 20.4 mph 20.4 mph 62 % 0.0 in
00:50 12.2 °F 5.1 °F 1016.8 in WSW 16.7 mph 16.7 mph 62 % 0.0 in
01:00 11.8 °F 4.7 °F 1015.8 in WSW 11.3 mph 12.9 mph 62 % 0.0 in
01:02 12.2 °F 5.3 °F 1016.8 in WSW 27.8 mph 27.8 mph 63 % 0.0 in
01:10 11.8 °F 4.7 °F 1015.8 in WSW 9.7 mph 9.7 mph 62 % 0.0 in
01:20 11.9 °F 4.8 °F 1015.8 in WSW 14.5 mph 27.4 mph 62 % 0.0 in
01:24 12.2 °F 5.3 °F 1016.8 in WNW 13.0 mph 13.0 mph 63 % 0.0 in
01:30 11.8 °F 4.5 °F 1015.8 in WSW 9.7 mph 24.1 mph 61 % 0.0 in
01:40 11.7 °F 4.4 °F 1015.8 in WSW 11.3 mph 17.7 mph 61 % 0.0 in
01:50 11.8 °F 4.5 °F 1015.8 in West 12.9 mph 17.7 mph 61 % 0.0 in
02:00 11.8 °F 4.3 °F 1015.8 in West 14.5 mph 24.1 mph 60 % 0.0 in
02:10 11.8 °F 4.1 °F 1015.8 in West 14.5 mph 17.7 mph 59 % 0.0 in
02:20 11.8 °F 3.8 °F 1016.8 in WSW 14.5 mph 25.7 mph 58 % 0.0 in
02:30 11.9 °F 3.7 °F 1016.8 in West 12.9 mph 19.3 mph 57 % 0.0 in
02:40 12.1 °F 3.8 °F 1016.8 in West 11.3 mph 17.7 mph 57 % 0.0 in
02:50 12.1 °F 3.6 °F 1017.8 in West 14.5 mph 14.5 mph 56 % 0.0 in
03:00 12.2 °F 3.7 °F 1017.8 in West 4.8 mph 17.7 mph 56 % 0.0 in
03:10 12.3 °F 3.5 °F 1017.8 in WSW 9.7 mph 16.1 mph 55 % 0.0 in
03:20 12.4 °F 3.6 °F 1017.8 in West 4.8 mph 16.1 mph 55 % 0.0 in
03:25 12.4 °F 3.6 °F 1017.8 in West 4.8 mph 11.3 mph 55 % 0.0 in
09:25 12.5 °F 3.7 °F 1017.8 in West 11.1 mph 11.1 mph 55 % 0.0 in
09:32 12.6 °F 3.8 °F 1017.8 in NNW 9.3 mph 9.3 mph 55 % 0.0 in
09:38 12.7 °F 3.9 °F 1017.8 in SSW 9.3 mph 9.3 mph 55 % 0.0 in
09:45 12.8 °F 4.0 °F 1017.8 in SSW 9.5 mph 9.5 mph 55 % 0.0 in
09:51 12.8 °F 4.0 °F 1017.8 in WSW 9.3 mph 9.3 mph 55 % 0.0 in
10:03 13.0 °F 3.9 °F 1017.8 in SW 18.5 mph 18.5 mph 54 % 0.0 in
10:11 13.1 °F 4.0 °F 1017.8 in WNW 20.4 mph 20.4 mph 54 % 0.0 in
10:16 13.1 °F 3.7 °F 1017.8 in WNW 14.8 mph 14.8 mph 53 % 0.0 in
10:28 13.2 °F 3.6 °F 1018.8 in WNW 24.1 mph 24.1 mph 52 % 0.0 in
10:40 13.3 °F 3.7 °F 1018.8 in WSW 16.7 mph 16.7 mph 52 % 0.0 in
11:01 13.7 °F 3.7 °F 1018.8 in SW 14.8 mph 14.8 mph 51 % 0.0 in
11:08 13.8 °F 3.8 °F 1019.9 in SW 13.0 mph 13.0 mph 51 % 0.0 in
11:13 14.0 °F 4.0 °F 1019.9 in WSW 13.0 mph 13.0 mph 51 % 0.0 in
11:21 14.2 °F 4.2 °F 1018.8 in WSW 9.3 mph 9.3 mph 51 % 0.0 in
11:40 15.1 °F 5.1 °F 1018.8 in North 5.0 mph 5.0 mph 51 % 0.0 in
11:57 15.1 °F 4.7 °F 1019.9 in WSW 13.0 mph 13.0 mph 50 % 0.0 in
12:03 15.0 °F 4.7 °F 1019.9 in SW 11.1 mph 11.1 mph 50 % 0.0 in
12:11 14.9 °F 4.3 °F 1019.9 in SSW 16.7 mph 16.7 mph 49 % 0.0 in
12:25 15.4 °F 4.7 °F 1020.9 in SSW 6.9 mph 6.9 mph 49 % 0.0 in
13:08 16.2 °F 4.9 °F 1019.9 in NW 7.4 mph 7.4 mph 47 % 0.0 in
13:15 16.2 °F 4.9 °F 1019.9 in SW 9.3 mph 9.3 mph 47 % 0.0 in
13:27 16.3 °F 4.7 °F 1020.9 in West 14.8 mph 14.8 mph 46 % 0.0 in
13:32 16.3 °F 4.7 °F 1020.9 in WSW 7.4 mph 7.4 mph 46 % 0.0 in
13:38 16.3 °F 4.3 °F 1019.9 in WSW 10.3 mph 10.3 mph 45 % 0.0 in
14:00 16.5 °F 4.2 °F 1019.9 in SW 9.3 mph 9.3 mph 44 % 0.0 in
14:06 16.4 °F 4.1 °F 1019.9 in West 9.3 mph 9.3 mph 44 % 0.0 in
14:14 16.4 °F 4.1 °F 1019.9 in WSW 9.3 mph 9.3 mph 44 % 0.0 in
14:40 16.3 °F 4.0 °F 1020.9 in West 9.3 mph 9.3 mph 44 % 0.0 in
15:00 16.6 °F 4.3 °F 1020.9 in West 9.3 mph 9.3 mph 44 % 0.0 in
15:19 16.3 °F 3.3 °F 1021.9 in WNW 13.0 mph 13.0 mph 42 % 0.0 in
15:35 16.2 °F 3.3 °F 1021.9 in WSW 16.7 mph 16.7 mph 42 % 0.0 in
15:41 16.1 °F 2.8 °F 1021.9 in West 14.8 mph 14.8 mph 41 % 0.0 in
16:05 16.2 °F 3.3 °F 1021.9 in West 11.1 mph 11.1 mph 42 % 0.0 in
16:22 15.9 °F 2.7 °F 1021.9 in WSW 9.3 mph 9.3 mph 41 % 0.0 in
16:54 15.5 °F 1.9 °F 1022.9 in WSW 7.4 mph 7.4 mph 40 % 0.0 in
17:00 15.3 °F 1.8 °F 1022.9 in WSW 3.7 mph 3.7 mph 40 % 0.0 in
17:06 15.3 °F 1.8 °F 1022.9 in WSW 9.3 mph 9.3 mph 40 % 0.0 in
17:34 14.1 °F 0.3 °F 1023.9 in WSW 9.7 mph 9.7 mph 39 % 0.0 in
17:39 14.0 °F 0.2 °F 1023.9 in SW 11.1 mph 11.1 mph 39 % 0.0 in
17:45 13.7 °F 0.0 °F 1023.9 in WSW 7.4 mph 7.4 mph 39 % 0.0 in
17:51 13.6 °F -0.1 °F 1023.9 in West 14.0 mph 14.0 mph 39 % 0.0 in
18:10 13.2 °F -0.4 °F 1023.9 in West 4.7 mph 4.7 mph 39 % 0.0 in
18:41 12.6 °F -0.7 °F 1023.9 in West 9.5 mph 9.5 mph 40 % 0.0 in
19:00 12.4 °F -0.8 °F 1023.9 in WSW 5.6 mph 5.6 mph 40 % 0.0 in
19:12 12.2 °F -0.7 °F 1023.9 in SW 5.8 mph 5.8 mph 41 % 0.0 in
19:19 12.0 °F -0.9 °F 1024.9 in SW 1.9 mph 1.9 mph 41 % 0.0 in
19:32 11.4 °F -1.4 °F 1024.9 in WSW 1.9 mph   41 % 0.0 in
19:44 11.0 °F -1.8 °F 1024.9 in West 3.7 mph 3.9 mph 41 % 0.0 in
19:57 11.1 °F -1.3 °F 1026.0 in WSW 6.4 mph 6.4 mph 42 % 0.0 in
20:15 10.5 °F -1.6 °F 1024.9 in SSW 1.9 mph 1.9 mph 43 % 0.0 in
20:39 10.0 °F -1.4 °F 1026.0 in Calm     45 % 0.0 in
20:44 10.0 °F -1.4 °F 1026.0 in Calm     45 % 0.0 in
20:49 10.0 °F -1.1 °F 1024.9 in Calm     46 % 0.0 in
20:54 10.1 °F -1.0 °F 1024.9 in West 3.7 mph 3.7 mph 46 % 0.0 in
20:59 10.5 °F -0.7 °F 1024.9 in WSW 5.6 mph 5.6 mph 46 % 0.0 in
21:04 10.8 °F -0.4 °F 1024.9 in West 7.4 mph 7.4 mph 46 % 0.0 in
21:09 11.1 °F -0.1 °F 1024.9 in WSW 5.6 mph 5.6 mph 46 % 0.0 in
21:14 11.1 °F -0.1 °F 1024.9 in SW 3.7 mph 3.9 mph 46 % 0.0 in
21:19 11.2 °F 0.0 °F 1026.0 in WNW 7.4 mph 7.4 mph 46 % 0.0 in
21:24 11.1 °F -0.1 °F 1026.0 in West 3.9 mph 3.9 mph 46 % 0.0 in
21:29 11.1 °F -0.1 °F 1026.0 in WNW 3.7 mph 3.7 mph 46 % 0.0 in
21:35 11.0 °F -0.2 °F 1026.0 in WSW 5.0 mph 5.0 mph 46 % 0.0 in
21:38 11.0 °F -0.2 °F 1026.0 in West 7.4 mph 7.4 mph 46 % 0.0 in
21:41 11.0 °F -0.2 °F 1026.0 in WSW 7.4 mph 7.4 mph 46 % 0.0 in
21:43 10.9 °F 0.0 °F 1026.0 in WSW 6.4 mph 6.4 mph 47 % 0.0 in
21:46 10.8 °F -0.1 °F 1026.0 in West 7.4 mph 7.4 mph 47 % 0.0 in
21:50 6.7 °F -1.2 °F 1026.0 in Calm     57 % 0.0 in
21:51 10.7 °F -0.2 °F 1026.0 in West 5.6 mph 5.6 mph 47 % 0.0 in
21:56 10.6 °F -0.3 °F 1026.0 in West 5.6 mph 5.6 mph 47 % 0.0 in
22:00 6.6 °F -1.1 °F 1026.0 in NW 1.6 mph 1.6 mph 58 % 0.0 in
22:01 10.5 °F -0.3 °F 1026.0 in WSW 5.8 mph 5.8 mph 47 % 0.0 in
22:05 10.5 °F -0.3 °F 1026.0 in WSW 7.4 mph 7.4 mph 47 % 0.0 in
22:10 10.4 °F -0.4 °F 1026.0 in West 9.3 mph 9.3 mph 47 % 0.0 in
22:11 10.4 °F -0.4 °F 1026.0 in West 5.6 mph 5.6 mph 47 % 0.0 in
22:16 10.3 °F -0.2 °F 1026.0 in South 5.6 mph 5.6 mph 48 % 0.0 in
22:19 10.2 °F -0.3 °F 1027.0 in WNW 3.7 mph   48 % 0.0 in
22:20 6.2 °F -1.2 °F 1024.9 in Calm   1.6 mph 59 % 0.0 in
22:21 10.2 °F -0.3 °F 1027.0 in West 2.6 mph 2.6 mph 48 % 0.0 in
22:22 10.1 °F -0.4 °F 1027.0 in SSE 3.7 mph   48 % 0.0 in
22:25 10.0 °F -0.5 °F 1027.0 in WNW 1.9 mph 2.3 mph 48 % 0.0 in
22:27 10.0 °F -0.5 °F 1027.0 in SW 1.9 mph 1.9 mph 48 % 0.0 in
22:28 10.0 °F -0.5 °F 1027.0 in SSE 1.9 mph 1.9 mph 48 % 0.0 in
22:30 6.2 °F -1.2 °F 1024.9 in NNE 3.2 mph 3.2 mph 59 % 0.0 in
22:33 9.8 °F -0.7 °F 1027.0 in North 3.7 mph 3.7 mph 48 % 0.0 in
22:34 9.8 °F -0.7 °F 1027.0 in WSW 4.2 mph 4.2 mph 48 % 0.0 in
22:39 9.7 °F -0.8 °F 1027.0 in WSW 5.6 mph 5.6 mph 48 % 0.0 in
22:40 6.2 °F -1.0 °F 1024.9 in North 1.6 mph 4.8 mph 60 % 0.0 in
22:44 9.6 °F -0.6 °F 1027.0 in WSW 3.7 mph 3.7 mph 49 % 0.0 in
22:48 9.6 °F -0.6 °F 1027.0 in West 3.7 mph 3.9 mph 49 % 0.0 in
22:49 9.5 °F -0.7 °F 1027.0 in WNW 3.7 mph 3.7 mph 49 % 0.0 in
22:50 6.1 °F -1.1 °F 1023.9 in Calm   3.2 mph 60 % 0.0 in
22:53 9.5 °F -0.7 °F 1027.0 in South 3.7 mph 3.7 mph 49 % 0.0 in
22:58 9.4 °F -0.8 °F 1027.0 in West 3.7 mph 3.7 mph 49 % 0.0 in
23:00 5.9 °F -1.5 °F 1023.9 in Calm   3.2 mph 59 % 0.0 in
23:03 9.3 °F -0.6 °F 1027.0 in West 3.7 mph 3.7 mph 50 % 0.0 in
23:08 9.2 °F -0.7 °F 1027.0 in WSW 4.2 mph 4.2 mph 50 % 0.0 in
23:10 5.7 °F -1.4 °F 1023.9 in Calm     60 % 0.0 in
23:13 9.2 °F -0.7 °F 1027.0 in South 1.9 mph   50 % 0.0 in
23:18 9.1 °F -0.8 °F 1027.0 in WSW 1.9 mph   50 % 0.0 in
23:20 5.6 °F -1.6 °F 1023.9 in NNW 1.6 mph 1.6 mph 60 % 0.0 in
23:23 9.1 °F -0.5 °F 1027.0 in West 3.7 mph 3.7 mph 51 % 0.0 in
23:28 9.2 °F -0.4 °F 1027.0 in WSW 1.9 mph 1.9 mph 51 % 0.0 in
23:30 5.5 °F -1.7 °F 1023.9 in NW 1.6 mph 3.2 mph 60 % 0.0 in
23:33 9.2 °F -0.4 °F 1027.0 in WSW 3.7 mph 3.7 mph 51 % 0.0 in
23:38 9.2 °F -0.4 °F 1027.0 in WSW 3.7 mph 3.7 mph 51 % 0.0 in
23:40 5.5 °F -1.7 °F 1023.9 in NW 1.6 mph 3.2 mph 60 % 0.0 in
23:43 9.3 °F -0.3 °F 1027.0 in WSW 1.9 mph 1.9 mph 51 % 0.0 in
23:48 9.3 °F -0.3 °F 1026.0 in Calm     51 % 0.0 in
23:50 5.2 °F -1.7 °F 1024.9 in WNW 1.6 mph 3.2 mph 61 % 0.0 in
23:53 9.2 °F -0.4 °F 1026.0 in WSW 1.9 mph 1.9 mph 51 % 0.0 in
23:58 9.2 °F -0.4 °F 1026.0 in WSW 3.7 mph   51 % 0.0 in
Meteo Sesrovires
Elogis d' Weather Underground - 1.25 mb

Guio original per  Jim McMurry - jmcmurry@mwt.net Adaptat per a la plantilla per  Wim van der Kuil - Leuven-Template.eu

Trobareu la nostra informacio del temps tambe a:

Weather Underground

AWEKAS